Betancuria — EAMH — position and weather

sailwx.info

Track history (hours):
 
Tides and Currents Weather Stations Pressure Air Temp Water Temp Dewpoint Dewpoint Depression Visibility Wind Speed Wind Dir Waves Ship Positions

Betancuria

Last reported at 2015-Jul-01 20:33 UTC. Time now 2015-Jul-01 21:07 UTC.
Position N 38°17' W 009°43'.

Length 141 m; draft 4.7 m.

Type: Ship. MMSI: 224471000.

Date/timePositionNaut miles runAvg speedWind from/ knotsBaromVisibWave heightAir tempDewpointWater temp
2015-Jul-01 20:33N 38°17' W 009°43'9 9.0
2015-Jul-01 19:33N 38°08' W 009°40'10 9.1
2015-Jul-01 18:27N 37°58' W 009°38'10 9.2
2015-Jul-01 17:24N 37°49' W 009°35'8 9.4
2015-Jul-01 16:30N 37°41' W 009°32'2010.1
2015-Jul-01 14:33N 37°22' W 009°28'54 8.8
2015-Jul-01 08:25N 36°34' W 008°58'19 9.8
2015-Jul-01 06:28N 36°14' W 008°57'910.0
2015-Jul-01 05:33N 36°05' W 008°56'1110.1
2015-Jul-01 04:28N 35°54' W 008°55'910.0
2015-Jul-01 03:33N 35°45' W 008°54'1010.1
2015-Jul-01 02:33N 35°35' W 008°53'1210.2
2015-Jul-01 01:20N 35°23' W 008°51'810.4
2015-Jul-01 00:31N 35°14' W 008°51'3210.1
2015-Jun-30 21:19N 34°42' W 008°48'7 9.6
2015-Jun-30 20:33N 34°35' W 008°48'12 9.8
2015-Jun-30 19:18N 34°22' W 008°47'18 9.8
2015-Jun-30 17:26N 34°04' W 008°45'10 9.6
2015-Jun-30 16:26N 33°55' W 008°44'8 9.5
2015-Jun-30 15:33N 33°46' W 008°43'32 9.7
2015-Jun-30 12:15N 33°14' W 008°39'7 0.1
2015-Jun-28 14:32N 33°08' W 008°38'5710.3
2015-Jun-28 09:03N 34°02' W 008°58'611.1
2015-Jun-28 08:33N 34°07' W 008°60'1211.1
2015-Jun-28 07:28N 34°19' W 009°04'2311.1
2015-Jun-28 05:23N 34°41' W 009°12'1411.2
2015-Jun-28 04:08N 34°55' W 009°16'2911.0
2015-Jun-28 01:29N 35°23' W 009°27'1210.9
2015-Jun-28 00:22N 35°34' W 009°31'911.0
2015-Jun-27 23:33N 35°43' W 009°33'1111.1
2015-Jun-27 22:33N 35°54' W 009°37'1111.2
2015-Jun-27 21:33N 36°05' W 009°41'1111.4
2015-Jun-27 20:33N 36°16' W 009°44'1111.4
2015-Jun-27 19:33N 36°27' W 009°48'1111.2
2015-Jun-27 18:33N 36°38' W 009°51'1111.1
2015-Jun-27 17:33N 36°49' W 009°53'1111.1
2015-Jun-27 16:33N 36°60' W 009°55'1111.3
2015-Jun-27 15:33N 37°11' W 009°56'1111.3
2015-Jun-27 14:33N 37°22' W 009°57'1211.7
2015-Jun-27 13:33N 37°34' W 009°59'1111.4
2015-Jun-27 12:33N 37°45' W 009°60'1211.6
2015-Jun-27 11:33N 37°57' W 010°01'1111.3
2015-Jun-27 10:33N 38°08' W 010°02'1111.2
2015-Jun-27 09:33N 38°19' W 010°03'1111.4
2015-Jun-27 08:34N 38°30' W 010°05'1111.3
2015-Jun-27 07:33N 38°42' W 010°06'1111.3
2015-Jun-27 06:33N 38°53' W 010°06'1111.2
2015-Jun-27 05:33N 39°04' W 010°07'1111.5
2015-Jun-27 04:33N 39°16' W 010°07'1111.3
2015-Jun-27 03:33N 39°27' W 010°07'1111.2
2015-Jun-27 02:33N 39°38' W 010°09'1211.4
2015-Jun-27 01:33N 39°50' W 010°10'1111.5
2015-Jun-27 00:33N 40°01' W 010°11'1311.6
2015-Jun-26 23:28N 40°14' W 010°12'1111.6
2015-Jun-26 22:33N 40°24' W 010°13'1211.7
2015-Jun-26 21:33N 40°36' W 010°15'1211.5
2015-Jun-26 20:33N 40°47' W 010°12'1211.6
2015-Jun-26 19:33N 40°58' W 010°06'1211.9
2015-Jun-26 18:33N 41°10' W 010°06'1211.7
2015-Jun-26 17:30N 41°22' W 010°06'2711.7
2015-Jun-26 15:10N 41°49' W 010°06'711.2
2015-Jun-26 14:33N 41°56' W 010°06'1111.4
2015-Jun-26 13:33N 42°08' W 010°06'1111.3
2015-Jun-26 12:33N 42°19' W 010°07'189 8.9
2015-Jun-25 15:23N 43°45' W 006°16'1311.4
2015-Jun-25 14:18N 43°43' W 005°59'911.1
2015-Jun-25 13:30N 43°41' W 005°47'8 8.4
2015-Jun-25 12:31N 43°34' W 005°41'0 0.4
2015-Jun-25 11:33N 43°33' W 005°41'0 0.0
2015-Jun-25 10:33N 43°33' W 005°41'0 0.0
2015-Jun-25 09:33N 43°33' W 005°41'0 0.0
2015-Jun-25 08:33N 43°33' W 005°41'3 3.3
2015-Jun-25 07:33N 43°35' W 005°37'1111.1
2015-Jun-25 06:33N 43°35' W 005°22'1411.5
2015-Jun-25 05:19N 43°35' W 005°02'10511.6
2015-Jun-24 20:17N 43°34' W 002°37'911.8
2015-Jun-24 19:33N 43°34' W 002°25'1311.9
2015-Jun-24 18:27N 43°33' W 002°07'1311.7
2015-Jun-24 17:18N 43°32' W 001°49'811.4
2015-Jun-24 16:34N 43°32' W 001°37'5 4.8
2015-Jun-24 15:29N 43°32' W 001°30'0 0.0
2015-Jun-24 14:31N 43°32' W 001°30'0 0.0
2015-Jun-24 13:29N 43°32' W 001°30'0 0.0
2015-Jun-24 12:22N 43°32' W 001°30'0 0.0
2015-Jun-24 11:31N 43°32' W 001°30'0 0.0
2015-Jun-24 10:13N 43°32' W 001°30'0 0.0
2015-Jun-24 07:19N 43°32' W 001°30'0 0.0
2015-Jun-24 06:25N 43°32' W 001°30'0 0.0
2015-Jun-24 05:31N 43°32' W 001°30'0 0.0
2015-Jun-24 04:31N 43°32' W 001°30'0 0.0
2015-Jun-24 03:31N 43°32' W 001°30'0 0.0
2015-Jun-24 02:31N 43°32' W 001°30'0 0.0
2015-Jun-24 01:31N 43°32' W 001°30'0 0.0
2015-Jun-24 00:31N 43°32' W 001°30'0 0.0
2015-Jun-23 23:31N 43°32' W 001°30'0 0.0
2015-Jun-22 19:26N 43°32' W 001°31'0 0.0
2015-Jun-22 18:32N 43°32' W 001°31'0 0.0
2015-Jun-22 17:32N 43°32' W 001°31'0 0.0
2015-Jun-22 16:14N 43°32' W 001°31'0 0.0
2015-Jun-22 15:32N 43°32' W 001°31'0 0.0
2015-Jun-22 14:32N 43°32' W 001°31'0 0.0
2015-Jun-22 13:32N 43°32' W 001°31'0 0.0
2015-Jun-22 12:29N 43°32' W 001°31'0 0.0
2015-Jun-22 11:29N 43°32' W 001°31'0 0.0
2015-Jun-21 23:17N 43°32' W 001°31'0 0.0
2015-Jun-21 22:23N 43°32' W 001°31'0 0.0
2015-Jun-21 21:29N 43°32' W 001°31'  
Track history (hours):
 
Tides and Currents Weather Stations Pressure Air Temp Water Temp Dewpoint Dewpoint Depression Visibility Wind Speed Wind Dir Waves Ship Positions

Betancuria

Last reported at 2015-Jul-01 20:33 UTC. Time now 2015-Jul-01 21:07 UTC.
Position N 38°17' W 009°43'.

Length 141 m; draft 4.7 m.

Type: Ship. MMSI: 224471000.

Date/timePositionNaut miles runAvg speedWind from/ knotsBaromVisibWave heightAir tempDewpointWater temp
2015-Jul-01 20:33N 38°17' W 009°43'9 9.0
2015-Jul-01 19:33N 38°08' W 009°40'10 9.1
2015-Jul-01 18:27N 37°58' W 009°38'10 9.2
2015-Jul-01 17:24N 37°49' W 009°35'8 9.4
2015-Jul-01 16:30N 37°41' W 009°32'2010.1
2015-Jul-01 14:33N 37°22' W 009°28'54 8.8
2015-Jul-01 08:25N 36°34' W 008°58'19 9.8
2015-Jul-01 06:28N 36°14' W 008°57'910.0
2015-Jul-01 05:33N 36°05' W 008°56'1110.1
2015-Jul-01 04:28N 35°54' W 008°55'910.0
2015-Jul-01 03:33N 35°45' W 008°54'1010.1
2015-Jul-01 02:33N 35°35' W 008°53'1210.2
2015-Jul-01 01:20N 35°23' W 008°51'810.4
2015-Jul-01 00:31N 35°14' W 008°51'3210.1
2015-Jun-30 21:19N 34°42' W 008°48'7 9.6
2015-Jun-30 20:33N 34°35' W 008°48'12 9.8
2015-Jun-30 19:18N 34°22' W 008°47'18 9.8
2015-Jun-30 17:26N 34°04' W 008°45'10 9.6
2015-Jun-30 16:26N 33°55' W 008°44'8 9.5
2015-Jun-30 15:33N 33°46' W 008°43'32 9.7
2015-Jun-30 12:15N 33°14' W 008°39'7 0.1
2015-Jun-28 14:32N 33°08' W 008°38'5710.3
2015-Jun-28 09:03N 34°02' W 008°58'611.1
2015-Jun-28 08:33N 34°07' W 008°60'1211.1
2015-Jun-28 07:28N 34°19' W 009°04'2311.1
2015-Jun-28 05:23N 34°41' W 009°12'1411.2
2015-Jun-28 04:08N 34°55' W 009°16'2911.0
2015-Jun-28 01:29N 35°23' W 009°27'1210.9
2015-Jun-28 00:22N 35°34' W 009°31'911.0
2015-Jun-27 23:33N 35°43' W 009°33'1111.1
2015-Jun-27 22:33N 35°54' W 009°37'1111.2
2015-Jun-27 21:33N 36°05' W 009°41'1111.4
2015-Jun-27 20:33N 36°16' W 009°44'1111.4
2015-Jun-27 19:33N 36°27' W 009°48'1111.2
2015-Jun-27 18:33N 36°38' W 009°51'1111.1
2015-Jun-27 17:33N 36°49' W 009°53'1111.1
2015-Jun-27 16:33N 36°60' W 009°55'1111.3
2015-Jun-27 15:33N 37°11' W 009°56'1111.3
2015-Jun-27 14:33N 37°22' W 009°57'1211.7
2015-Jun-27 13:33N 37°34' W 009°59'1111.4
2015-Jun-27 12:33N 37°45' W 009°60'1211.6
2015-Jun-27 11:33N 37°57' W 010°01'1111.3
2015-Jun-27 10:33N 38°08' W 010°02'1111.2
2015-Jun-27 09:33N 38°19' W 010°03'1111.4
2015-Jun-27 08:34N 38°30' W 010°05'1111.3
2015-Jun-27 07:33N 38°42' W 010°06'1111.3
2015-Jun-27 06:33N 38°53' W 010°06'1111.2
2015-Jun-27 05:33N 39°04' W 010°07'1111.5
2015-Jun-27 04:33N 39°16' W 010°07'1111.3
2015-Jun-27 03:33N 39°27' W 010°07'1111.2
2015-Jun-27 02:33N 39°38' W 010°09'1211.4
2015-Jun-27 01:33N 39°50' W 010°10'1111.5
2015-Jun-27 00:33N 40°01' W 010°11'1311.6
2015-Jun-26 23:28N 40°14' W 010°12'1111.6
2015-Jun-26 22:33N 40°24' W 010°13'1211.7
2015-Jun-26 21:33N 40°36' W 010°15'1211.5
2015-Jun-26 20:33N 40°47' W 010°12'1211.6
2015-Jun-26 19:33N 40°58' W 010°06'1211.9
2015-Jun-26 18:33N 41°10' W 010°06'1211.7
2015-Jun-26 17:30N 41°22' W 010°06'2711.7
2015-Jun-26 15:10N 41°49' W 010°06'711.2
2015-Jun-26 14:33N 41°56' W 010°06'1111.4
2015-Jun-26 13:33N 42°08' W 010°06'1111.3
2015-Jun-26 12:33N 42°19' W 010°07'189 8.9
2015-Jun-25 15:23N 43°45' W 006°16'1311.4
2015-Jun-25 14:18N 43°43' W 005°59'911.1
2015-Jun-25 13:30N 43°41' W 005°47'8 8.4
2015-Jun-25 12:31N 43°34' W 005°41'0 0.4
2015-Jun-25 11:33N 43°33' W 005°41'0 0.0
2015-Jun-25 10:33N 43°33' W 005°41'0 0.0
2015-Jun-25 09:33N 43°33' W 005°41'0 0.0
2015-Jun-25 08:33N 43°33' W 005°41'3 3.3
2015-Jun-25 07:33N 43°35' W 005°37'1111.1
2015-Jun-25 06:33N 43°35' W 005°22'1411.5
2015-Jun-25 05:19N 43°35' W 005°02'10511.6
2015-Jun-24 20:17N 43°34' W 002°37'911.8
2015-Jun-24 19:33N 43°34' W 002°25'1311.9
2015-Jun-24 18:27N 43°33' W 002°07'1311.7
2015-Jun-24 17:18N 43°32' W 001°49'811.4
2015-Jun-24 16:34N 43°32' W 001°37'5 4.8
2015-Jun-24 15:29N 43°32' W 001°30'0 0.0
2015-Jun-24 14:31N 43°32' W 001°30'0 0.0
2015-Jun-24 13:29N 43°32' W 001°30'0 0.0
2015-Jun-24 12:22N 43°32' W 001°30'0 0.0
2015-Jun-24 11:31N 43°32' W 001°30'0 0.0
2015-Jun-24 10:13N 43°32' W 001°30'0 0.0
2015-Jun-24 07:19N 43°32' W 001°30'0 0.0
2015-Jun-24 06:25N 43°32' W 001°30'0 0.0
2015-Jun-24 05:31N 43°32' W 001°30'0 0.0
2015-Jun-24 04:31N 43°32' W 001°30'0 0.0
2015-Jun-24 03:31N 43°32' W 001°30'0 0.0
2015-Jun-24 02:31N 43°32' W 001°30'0 0.0
2015-Jun-24 01:31N 43°32' W 001°30'0 0.0
2015-Jun-24 00:31N 43°32' W 001°30'0 0.0
2015-Jun-23 23:31N 43°32' W 001°30'0 0.0
2015-Jun-22 19:26N 43°32' W 001°31'0 0.0
2015-Jun-22 18:32N 43°32' W 001°31'0 0.0
2015-Jun-22 17:32N 43°32' W 001°31'0 0.0
2015-Jun-22 16:14N 43°32' W 001°31'0 0.0
2015-Jun-22 15:32N 43°32' W 001°31'0 0.0
2015-Jun-22 14:32N 43°32' W 001°31'0 0.0
2015-Jun-22 13:32N 43°32' W 001°31'0 0.0
2015-Jun-22 12:29N 43°32' W 001°31'0 0.0
2015-Jun-22 11:29N 43°32' W 001°31'0 0.0
2015-Jun-21 23:17N 43°32' W 001°31'0 0.0
2015-Jun-21 22:23N 43°32' W 001°31'0 0.0
2015-Jun-21 21:29N 43°32' W 001°31'  

Dump ship's entire track history